Time;durP1;ratioP1;P1;durP2;ratioP2;P2;SDS_P1;SDS_P2;PMS_P1;PMS_P2;Temp;Humidity;BMP_temperature;BMP_pressure;BME280_temperature;BME280_humidity;BME280_pressure;Samples;Min_cycle;Max_cycle;Signal;HPM_P1;HPM_P2
2023/10/22 00:01:43;;;;;;;5.78;1.30;;;;;;;11.94;100.00;99557.88;5049953;28;20056;-66
2023/10/22 00:04:08;;;;;;;8.15;1.63;;;;;;;11.94;100.00;99560.63;5049726;28;20116;-65
2023/10/22 00:06:34;;;;;;;6.57;1.40;;;;;;;11.94;100.00;99571.72;5049731;28;20059;-65
2023/10/22 00:08:59;;;;;;;5.75;1.10;;;;;;;11.92;100.00;99572.03;5049873;28;20025;-66
2023/10/22 00:11:24;;;;;;;6.28;1.35;;;;;;;11.94;100.00;99571.72;5049855;28;20037;-65
2023/10/22 00:13:49;;;;;;;6.07;1.50;;;;;;;11.93;100.00;99575.66;5049717;28;20021;-65
2023/10/22 00:16:15;;;;;;;8.50;1.60;;;;;;;11.94;100.00;99577.25;5049512;28;20339;-66
2023/10/22 00:18:40;;;;;;;6.07;1.17;;;;;;;11.91;100.00;99569.63;5048164;28;20025;-66
2023/10/22 00:21:08;;;;;;;4.75;1.45;;;;;;;11.91;100.00;99581.50;5049623;28;20571;-66
2023/10/22 00:23:35;;;;;;;5.00;1.23;;;;;;;11.90;100.00;99591.00;5049766;28;20029;-66
2023/10/22 00:26:00;;;;;;;9.25;1.70;;;;;;;11.91;100.00;99594.56;5049978;28;20025;-66
2023/10/22 00:28:26;;;;;;;7.03;1.40;;;;;;;11.90;100.00;99599.31;5049997;28;20039;-67
2023/10/22 00:30:51;;;;;;;7.30;1.40;;;;;;;11.89;100.00;99597.69;5049991;28;20047;-66
2023/10/22 00:33:16;;;;;;;6.00;1.40;;;;;;;11.88;100.00;99598.03;5049658;28;20136;-67
2023/10/22 00:35:41;;;;;;;5.72;1.30;;;;;;;11.92;100.00;99607.28;5049943;28;20090;-66
2023/10/22 00:38:07;;;;;;;7.43;1.40;;;;;;;11.94;100.00;99611.31;5049777;28;20447;-66
2023/10/22 00:40:32;;;;;;;4.22;1.40;;;;;;;11.97;100.00;99615.34;5049766;28;20032;-65
2023/10/22 00:43:03;;;;;;;4.25;1.40;;;;;;;11.94;100.00;99616.84;5048397;28;20029;-65
2023/10/22 00:45:29;;;;;;;5.18;1.25;;;;;;;11.93;100.00;99614.44;5049588;28;20113;-66
2023/10/22 00:47:54;;;;;;;5.32;1.33;;;;;;;11.95;100.00;99621.25;5049425;28;20039;-65
2023/10/22 00:50:19;;;;;;;7.50;1.38;;;;;;;11.96;100.00;99613.72;5049767;28;20040;-65
2023/10/22 00:52:45;;;;;;;7.63;1.50;;;;;;;11.98;100.00;99622.53;5049428;28;20476;-65
2023/10/22 00:55:13;;;;;;;6.82;1.45;;;;;;;12.00;100.00;99623.00;5049563;28;20091;-65
2023/10/22 00:57:39;;;;;;;6.18;1.52;;;;;;;12.01;100.00;99627.41;5049202;28;20353;-66
2023/10/22 01:00:06;;;;;;;5.10;1.48;;;;;;;12.01;100.00;99627.41;5049351;28;20029;-66
2023/10/22 01:02:32;;;;;;;5.88;1.58;;;;;;;12.04;100.00;99631.44;5049220;28;20025;-66
2023/10/22 01:04:57;;;;;;;8.38;1.50;;;;;;;12.06;100.00;99640.22;5049661;28;20364;-65
2023/10/22 01:07:22;;;;;;;7.45;1.50;;;;;;;12.07;100.00;99636.31;5049402;28;20072;-66
2023/10/22 01:09:48;;;;;;;10.07;1.65;;;;;;;12.10;100.00;99639.19;5049484;28;20107;-65
2023/10/22 01:12:13;;;;;;;8.43;1.92;;;;;;;12.09;100.00;99640.34;5049673;28;20028;-66
2023/10/22 01:14:38;;;;;;;7.13;1.50;;;;;;;12.06;100.00;99631.91;5049694;28;20039;-66
2023/10/22 01:17:04;;;;;;;9.48;1.95;;;;;;;12.05;100.00;99642.19;5049810;28;20090;-65
2023/10/22 01:19:29;;;;;;;7.85;1.65;;;;;;;12.09;100.00;99642.31;5047895;28;20021;-66
2023/10/22 01:21:54;;;;;;;6.20;1.50;;;;;;;12.12;100.00;99644.38;5050028;28;20033;-65
2023/10/22 01:24:19;;;;;;;7.38;1.45;;;;;;;12.16;100.00;99648.09;5053188;28;20020;-66
2023/10/22 01:26:45;;;;;;;8.82;1.80;;;;;;;12.19;100.00;99654.91;5052860;28;20029;-65
2023/10/22 01:29:10;;;;;;;10.20;1.48;;;;;;;12.19;100.00;99664.00;5053173;28;20033;-65
2023/10/22 01:31:36;;;;;;;7.47;1.52;;;;;;;12.14;100.00;99662.28;5052862;28;20098;-66
2023/10/22 01:34:03;;;;;;;8.75;1.60;;;;;;;12.16;100.00;99671.06;5053080;28;20033;-66
2023/10/22 01:36:30;;;;;;;4.60;1.33;;;;;;;12.15;100.00;99671.41;5051347;28;20444;-65
2023/10/22 01:38:55;;;;;;;8.70;1.73;;;;;;;12.11;100.00;99674.09;5051514;28;20116;-65
2023/10/22 01:41:20;;;;;;;4.38;1.55;;;;;;;12.11;100.00;99681.56;5052781;28;20032;-66
2023/10/22 01:43:46;;;;;;;6.28;1.95;;;;;;;12.08;100.00;99687.81;5053139;28;20040;-66
2023/10/22 01:46:11;;;;;;;6.72;1.60;;;;;;;12.09;100.00;99689.44;5053057;28;20098;-66
2023/10/22 01:48:38;;;;;;;8.40;1.80;;;;;;;11.98;100.00;99698.22;5053041;28;20029;-66
2023/10/22 01:51:03;;;;;;;6.65;1.60;;;;;;;11.94;100.00;99690.88;5053126;28;20032;-66
2023/10/22 01:53:29;;;;;;;6.38;1.80;;;;;;;11.90;100.00;99699.09;5051179;28;20440;-66
2023/10/22 01:55:55;;;;;;;4.40;1.48;;;;;;;11.84;100.00;99706.81;5052611;28;20024;-66
2023/10/22 01:58:20;;;;;;;7.72;1.80;;;;;;;11.79;100.00;99709.78;5052348;28;20049;-66
2023/10/22 02:00:45;;;;;;;9.77;1.80;;;;;;;11.78;100.00;99715.69;5052447;28;20138;-66
2023/10/22 02:03:10;;;;;;;10.90;2.00;;;;;;;11.76;100.00;99713.22;5052400;28;20056;-66
2023/10/22 02:05:36;;;;;;;9.50;2.10;;;;;;;11.70;100.00;99712.66;5052321;28;20039;-66
2023/10/22 02:08:02;;;;;;;6.32;1.80;;;;;;;11.66;100.00;99722.78;5052506;28;20112;-66
2023/10/22 02:10:28;;;;;;;8.07;1.90;;;;;;;11.64;100.00;99725.09;5052449;28;20036;-65
2023/10/22 02:12:53;;;;;;;8.63;2.00;;;;;;;11.62;100.00;99724.59;5052165;28;20029;-65
2023/10/22 02:15:18;;;;;;;9.00;2.08;;;;;;;11.57;100.00;99738.69;5052144;28;20045;-65
2023/10/22 02:17:43;;;;;;;10.70;2.20;;;;;;;11.52;100.00;99736.94;5052090;28;20475;-65
2023/10/22 02:20:10;;;;;;;12.18;2.28;;;;;;;11.47;100.00;99748.22;5051945;28;20453;-65
2023/10/22 02:22:37;;;;;;;9.35;1.80;;;;;;;11.46;100.00;99760.47;5033674;28;20033;-66
2023/10/22 02:25:02;;;;;;;7.40;2.25;;;;;;;11.45;100.00;99758.00;5051718;28;20064;-65
2023/10/22 02:27:28;;;;;;;9.48;2.10;;;;;;;11.39;100.00;99760.16;5051763;28;20068;-65
2023/10/22 02:29:53;;;;;;;5.35;2.00;;;;;;;11.36;100.00;99763.63;5051661;28;20032;-66
2023/10/22 02:32:18;;;;;;;7.57;1.98;;;;;;;11.33;100.00;99767.91;5051827;28;20075;-66
2023/10/22 02:34:44;;;;;;;6.38;2.17;;;;;;;11.28;100.00;99772.81;5050552;28;20448;-65
2023/10/22 02:37:10;;;;;;;9.63;1.90;;;;;;;11.28;100.00;99776.38;5051631;28;20025;-66
2023/10/22 02:39:35;;;;;;;7.97;2.05;;;;;;;11.27;100.00;99776.72;5051706;28;20170;-65
2023/10/22 02:42:00;;;;;;;7.38;2.20;;;;;;;11.27;100.00;99783.06;5051701;28;20091;-66
2023/10/22 02:44:25;;;;;;;7.97;2.30;;;;;;;11.26;100.00;99778.69;5051533;28;20115;-66
2023/10/22 02:46:51;;;;;;;10.75;2.10;;;;;;;11.22;100.00;99789.63;5051968;28;20021;-66
2023/10/22 02:49:16;;;;;;;9.15;2.20;;;;;;;11.26;100.00;99798.06;5051495;28;20029;-66
2023/10/22 02:51:41;;;;;;;11.80;2.30;;;;;;;11.26;100.00;99808.34;5051407;28;20029;-66
2023/10/22 02:54:07;;;;;;;9.50;2.20;;;;;;;11.24;100.00;99815.00;5051381;28;20021;-65
2023/10/22 02:56:32;;;;;;;6.72;2.00;;;;;;;11.25;100.00;99813.03;5051368;28;20028;-65
2023/10/22 02:58:57;;;;;;;12.38;2.60;;;;;;;11.24;100.00;99817.78;5051460;28;20044;-65
2023/10/22 03:01:23;;;;;;;7.32;2.20;;;;;;;11.23;100.00;99818.13;5051240;28;20029;-65
2023/10/22 03:03:48;;;;;;;10.95;2.40;;;;;;;11.24;100.00;99816.97;5051215;28;20033;-66
2023/10/22 03:06:14;;;;;;;13.32;2.60;;;;;;;11.24;100.00;99834.41;5051613;28;20159;-65
2023/10/22 03:08:41;;;;;;;9.13;2.35;;;;;;;11.23;100.00;99837.50;5051276;28;20033;-66
2023/10/22 03:11:15;;;;;;;11.43;2.55;;;;;;;11.23;100.00;99829.19;5049850;28;20431;-65
2023/10/22 03:13:40;;;;;;;8.77;2.25;;;;;;;11.23;100.00;99840.28;5051211;28;20036;-66
2023/10/22 03:16:15;;;;;;;11.40;2.60;;;;;;;11.22;100.00;99849.72;5051356;28;20369;-66
2023/10/22 03:18:41;;;;;;;10.15;2.35;;;;;;;11.23;100.00;99851.34;5051095;28;20397;-66
2023/10/22 03:21:16;;;;;;;10.82;2.50;;;;;;;11.23;100.00;99854.91;5051331;28;20075;-66
2023/10/22 03:23:42;;;;;;;8.45;2.40;;;;;;;11.24;100.00;99852.97;5051339;28;20035;-65
2023/10/22 03:26:09;;;;;;;11.50;3.22;;;;;;;11.25;100.00;99862.88;5051182;28;20096;-65
2023/10/22 03:28:36;;;;;;;10.50;2.30;;;;;;;11.27;100.00;99873.63;5051140;28;20036;-66
2023/10/22 03:31:05;;;;;;;8.60;2.50;;;;;;;11.23;100.00;99867.97;5050975;28;20072;-66
2023/10/22 03:33:31;;;;;;;8.90;2.75;;;;;;;11.24;100.00;99886.19;5050848;28;20032;-65
2023/10/22 03:35:58;;;;;;;6.40;2.50;;;;;;;11.25;100.00;99885.03;5050946;28;20041;-66
2023/10/22 03:38:24;;;;;;;8.48;2.53;;;;;;;11.26;100.00;99894.97;5050848;28;20464;-65
2023/10/22 03:40:58;;;;;;;9.23;2.88;;;;;;;11.27;100.00;99904.88;5050543;28;20056;-65
2023/10/22 03:43:25;;;;;;;8.45;2.80;;;;;;;11.29;100.00;99918.41;5051215;28;20064;-65
2023/10/22 03:45:51;;;;;;;16.27;3.50;;;;;;;11.27;100.00;99921.50;5050486;28;20029;-66
2023/10/22 03:48:16;;;;;;;14.48;3.70;;;;;;;11.26;100.00;99933.72;5050718;28;20033;-65
2023/10/22 03:50:43;;;;;;;15.88;3.55;;;;;;;11.19;100.00;99923.16;5050812;28;20056;-66
2023/10/22 03:53:08;;;;;;;12.48;3.70;;;;;;;11.24;100.00;99934.06;5050568;28;20021;-66
2023/10/22 03:55:34;;;;;;;15.43;3.88;;;;;;;11.22;100.00;99947.41;5050531;28;20108;-65
2023/10/22 03:57:59;;;;;;;13.35;3.90;;;;;;;11.20;100.00;99952.47;5050388;28;20045;-65
2023/10/22 04:00:24;;;;;;;12.63;3.47;;;;;;;11.18;100.00;99948.41;5050336;28;20370;-66
2023/10/22 04:02:49;;;;;;;15.15;4.10;;;;;;;11.11;100.00;99956.44;5050041;28;20127;-66
2023/10/22 04:05:15;;;;;;;16.17;4.45;;;;;;;11.11;100.00;99956.44;5048784;28;20021;-65
2023/10/22 04:07:40;;;;;;;15.68;4.50;;;;;;;11.13;100.00;99981.84;5050262;28;20325;-65
2023/10/22 04:10:09;;;;;;;16.88;4.32;;;;;;;11.12;100.00;99978.22;5050164;28;20048;-66
2023/10/22 04:12:35;;;;;;;17.80;4.88;;;;;;;11.12;100.00;99988.50;5050510;28;20033;-65
2023/10/22 04:15:00;;;;;;;14.80;4.60;;;;;;;11.10;100.00;99988.03;5050168;28;20115;-66
2023/10/22 04:17:25;;;;;;;18.38;5.90;;;;;;;11.10;100.00;99993.56;5050474;28;20107;-65
2023/10/22 04:19:50;;;;;;;19.20;5.07;;;;;;;11.05;100.00;99987.03;5048668;28;20044;-66
2023/10/22 04:22:16;;;;;;;17.92;5.22;;;;;;;11.01;100.00;100007.41;5050023;28;20032;-65
2023/10/22 04:24:41;;;;;;;20.65;5.13;;;;;;;11.06;100.00;100004.47;5050246;28;20405;-66
2023/10/22 04:27:06;;;;;;;18.40;5.03;;;;;;;11.01;100.00;100018.47;5050318;28;20036;-66
2023/10/22 04:29:32;;;;;;;17.58;5.18;;;;;;;10.98;100.00;100014.41;5050218;28;20040;-65
2023/10/22 04:31:57;;;;;;;16.73;5.05;;;;;;;10.98;100.00;100013.63;5050160;28;20032;-66
2023/10/22 04:34:22;;;;;;;17.27;4.88;;;;;;;10.95;100.00;100005.97;5050090;28;20032;-66
2023/10/22 04:36:48;;;;;;;14.52;4.50;;;;;;;10.96;100.00;100022.22;5050120;28;20029;-65
2023/10/22 04:39:13;;;;;;;15.85;4.88;;;;;;;10.92;100.00;100024.03;5049953;28;20489;-66
2023/10/22 04:41:38;;;;;;;16.55;4.90;;;;;;;10.92;100.00;100030.38;5049447;28;20394;-66
2023/10/22 04:44:04;;;;;;;17.00;4.95;;;;;;;10.91;100.00;100034.28;5049582;28;20108;-66
2023/10/22 04:46:29;;;;;;;17.48;4.82;;;;;;;10.89;100.00;100038.53;5049591;28;20131;-66
2023/10/22 04:48:55;;;;;;;17.10;4.70;;;;;;;10.87;100.00;100040.81;5049610;28;20143;-65
2023/10/22 04:51:21;;;;;;;17.40;4.85;;;;;;;10.82;100.00;100044.56;5049851;28;20033;-65
2023/10/22 04:53:46;;;;;;;15.68;4.65;;;;;;;10.83;100.00;100056.44;5049565;28;20033;-65
2023/10/22 04:56:12;;;;;;;17.60;4.72;;;;;;;10.77;100.00;100058.56;5049386;28;20182;-66
2023/10/22 04:58:37;;;;;;;17.10;4.68;;;;;;;10.72;100.00;100056.78;5052960;28;20045;-65
2023/10/22 05:01:02;;;;;;;17.33;4.70;;;;;;;10.68;100.00;100063.28;5053343;28;20132;-65
2023/10/22 05:03:28;;;;;;;15.57;4.60;;;;;;;10.62;100.00;100054.34;5053389;28;20073;-66
2023/10/22 05:05:54;;;;;;;17.05;4.85;;;;;;;10.56;100.00;100061.19;5053471;28;20079;-65
2023/10/22 05:08:23;;;;;;;16.00;4.75;;;;;;;10.53;100.00;100064.59;5054083;28;20044;-65
2023/10/22 05:10:48;;;;;;;15.27;4.70;;;;;;;10.52;100.00;100085.09;5053764;28;20487;-66
2023/10/22 05:13:13;;;;;;;17.55;5.15;;;;;;;10.48;100.00;100092.44;5053402;28;20033;-66
2023/10/22 05:15:38;;;;;;;16.70;5.25;;;;;;;10.41;100.00;100092.91;5053309;28;20021;-65
2023/10/22 05:18:05;;;;;;;18.05;5.22;;;;;;;10.34;100.00;100096.09;5053259;28;20385;-65
2023/10/22 05:20:31;;;;;;;17.95;4.80;;;;;;;10.25;100.00;100096.06;5053441;28;20025;-65
2023/10/22 05:22:57;;;;;;;16.63;4.65;;;;;;;10.22;100.00;100098.69;5053202;28;20036;-65
2023/10/22 05:25:22;;;;;;;16.40;4.47;;;;;;;10.16;100.00;100106.31;5053237;28;20029;-65
2023/10/22 05:27:47;;;;;;;16.38;4.60;;;;;;;10.10;100.00;100113.97;5053054;28;20025;-66
2023/10/22 05:30:13;;;;;;;14.50;4.32;;;;;;;10.05;100.00;100125.16;5052963;28;20480;-65
2023/10/22 05:32:39;;;;;;;14.68;4.40;;;;;;;9.97;100.00;100118.44;5052793;28;20373;-65
2023/10/22 05:35:05;;;;;;;17.77;4.70;;;;;;;9.92;100.00;100128.84;5052648;28;20029;-65
2023/10/22 05:37:30;;;;;;;16.10;4.68;;;;;;;9.87;100.00;100135.31;5052727;28;20037;-67
2023/10/22 05:39:59;;;;;;;17.02;4.90;;;;;;;9.83;100.00;100139.84;5052896;28;20025;-66
2023/10/22 05:42:24;;;;;;;16.70;4.68;;;;;;;9.80;100.00;100140.47;5052538;28;20107;-67
2023/10/22 05:44:50;;;;;;;16.05;4.40;;;;;;;9.76;100.00;100148.59;5050828;28;20124;-64
2023/10/22 05:47:15;;;;;;;16.05;4.68;;;;;;;9.70;100.00;100151.81;5052392;28;20457;-66
2023/10/22 05:49:40;;;;;;;15.07;4.60;;;;;;;9.60;100.00;100145.41;5052533;28;20120;-65
2023/10/22 05:52:06;;;;;;;14.80;4.18;;;;;;;9.59;100.00;100146.53;5052434;28;20463;-65
2023/10/22 05:54:31;;;;;;;15.60;4.05;;;;;;;9.57;100.00;100148.00;5052826;28;20178;-65
2023/10/22 05:56:56;;;;;;;16.08;4.63;;;;;;;9.55;100.00;100155.78;5052394;28;20045;-66
2023/10/22 05:59:22;;;;;;;15.80;4.72;;;;;;;9.50;100.00;100176.88;5052170;28;20453;-67
2023/10/22 06:01:47;;;;;;;17.98;4.47;;;;;;;9.46;100.00;100180.59;5052080;28;20021;-66
2023/10/22 06:04:12;;;;;;;16.85;4.50;;;;;;;9.41;100.00;100177.94;5051979;28;20088;-66
2023/10/22 06:06:38;;;;;;;14.93;4.22;;;;;;;9.35;100.00;100180.03;5050538;28;20036;-66
2023/10/22 06:09:03;;;;;;;13.88;4.38;;;;;;;9.30;100.00;100178.22;5051707;28;20036;-66
2023/10/22 06:11:29;;;;;;;18.63;4.32;;;;;;;9.28;100.00;100180.47;5051640;28;20033;-65
2023/10/22 06:13:56;;;;;;;14.93;4.30;;;;;;;9.25;100.00;100192.13;5051654;28;20025;-65
2023/10/22 06:16:23;;;;;;;15.75;4.03;;;;;;;9.23;100.00;100194.38;5052110;28;20032;-65
2023/10/22 06:18:48;;;;;;;15.20;4.65;;;;;;;9.21;100.00;100199.41;5051754;28;20040;-65
2023/10/22 06:21:15;;;;;;;18.17;4.57;;;;;;;9.20;100.00;100214.34;5051782;28;20033;-65
2023/10/22 06:23:40;;;;;;;16.60;4.60;;;;;;;9.19;100.00;100208.00;5051855;28;20491;-65
2023/10/22 06:26:08;;;;;;;15.27;4.40;;;;;;;9.17;100.00;100214.97;5052265;28;20029;-65
2023/10/22 06:28:34;;;;;;;14.65;4.10;;;;;;;9.18;100.00;100228.44;5052212;28;20100;-65
2023/10/22 06:31:09;;;;;;;14.43;4.35;;;;;;;9.17;100.00;100229.56;5051989;28;20112;-65
2023/10/22 06:33:35;;;;;;;15.43;4.43;;;;;;;9.22;100.00;100242.44;5051564;28;20053;-65
2023/10/22 06:36:18;;;;;;;14.90;4.18;;;;;;;9.23;100.00;100244.06;5050133;28;20071;-65
2023/10/22 06:38:46;;;;;;;14.02;3.95;;;;;;;9.25;100.00;100252.06;5051668;28;20033;-65
2023/10/22 06:41:21;;;;;;;16.05;4.45;;;;;;;9.26;100.00;100253.69;5051330;28;20380;-65
2023/10/22 06:43:48;;;;;;;13.75;3.95;;;;;;;9.28;100.00;100260.53;5050075;28;20143;-65
2023/10/22 06:46:14;;;;;;;16.92;4.22;;;;;;;9.28;100.00;100254.16;5051742;28;20040;-65
2023/10/22 06:48:39;;;;;;;13.50;3.83;;;;;;;9.35;100.00;100265.63;5051512;28;20112;-65
2023/10/22 06:51:15;;;;;;;12.73;4.00;;;;;;;9.40;100.00;100270.22;5051185;28;20037;-65
2023/10/22 06:53:42;;;;;;;15.20;3.90;;;;;;;9.43;100.00;100272.31;5051269;28;20057;-65
2023/10/22 06:56:07;;;;;;;15.40;3.80;;;;;;;9.50;100.00;100265.25;5051914;28;20029;-65
2023/10/22 06:58:33;;;;;;;13.25;3.90;;;;;;;9.57;100.00;100270.34;5051057;28;20427;-66
2023/10/22 07:01:06;;;;;;;13.82;4.03;;;;;;;9.60;100.00;100274.41;5051450;28;20021;-66
2023/10/22 07:03:33;;;;;;;11.80;3.70;;;;;;;9.64;100.00;100279.00;5051597;28;20029;-66
2023/10/22 07:05:59;;;;;;;12.02;3.50;;;;;;;9.66;100.00;100293.31;5051633;28;20053;-66
2023/10/22 07:08:25;;;;;;;13.55;3.58;;;;;;;9.63;100.00;100284.84;5051380;28;20071;-66
2023/10/22 07:10:50;;;;;;;11.38;3.30;;;;;;;9.67;100.00;100302.41;5051545;28;20026;-65
2023/10/22 07:13:15;;;;;;;11.90;2.78;;;;;;;9.69;100.00;100305.66;5051546;28;20029;-64
2023/10/22 07:15:41;;;;;;;13.02;3.15;;;;;;;9.70;100.00;100310.06;5051619;28;20028;-65
2023/10/22 07:18:06;;;;;;;11.02;2.95;;;;;;;9.70;100.00;100321.13;5051171;28;20112;-65
2023/10/22 07:20:31;;;;;;;11.57;3.30;;;;;;;9.70;100.00;100326.66;5050702;28;20098;-65
2023/10/22 07:22:58;;;;;;;12.77;3.17;;;;;;;9.69;100.00;100330.53;5051262;28;20135;-66
2023/10/22 07:25:23;;;;;;;8.57;2.92;;;;;;;9.66;100.00;100322.84;5051236;28;20033;-65
2023/10/22 07:27:49;;;;;;;12.38;3.10;;;;;;;9.69;100.00;100333.28;5051350;28;20029;-65
2023/10/22 07:30:14;;;;;;;8.85;2.70;;;;;;;9.68;100.00;100332.47;5049537;28;20044;-66
2023/10/22 07:32:39;;;;;;;10.60;2.72;;;;;;;9.70;100.00;100348.75;5051095;28;20452;-66
2023/10/22 07:35:06;;;;;;;8.52;2.92;;;;;;;9.72;100.00;100351.19;5051062;28;20036;-66
2023/10/22 07:37:31;;;;;;;9.52;2.70;;;;;;;9.71;100.00;100350.38;5051045;28;20025;-65
2023/10/22 07:39:57;;;;;;;7.57;2.60;;;;;;;9.76;100.00;100353.00;5050895;28;20044;-66
2023/10/22 07:42:23;;;;;;;11.73;2.72;;;;;;;9.80;100.00;100355.94;5050585;28;20032;-66
2023/10/22 07:44:50;;;;;;;10.63;2.90;;;;;;;9.91;100.00;100362.06;5050768;28;20456;-66
2023/10/22 07:47:15;;;;;;;11.93;2.75;;;;;;;10.01;100.00;100361.81;5051105;28;20063;-66
2023/10/22 07:49:40;;;;;;;11.20;3.00;;;;;;;10.14;100.00;100368.41;5050634;28;20077;-66
2023/10/22 07:52:06;;;;;;;12.10;3.08;;;;;;;10.27;100.00;100361.16;5050786;28;20040;-66
2023/10/22 07:54:31;;;;;;;11.57;2.78;;;;;;;10.42;100.00;100360.78;5049154;28;20443;-66
2023/10/22 07:56:57;;;;;;;8.55;2.80;;;;;;;10.58;100.00;100357.63;5050982;28;20417;-66
2023/10/22 07:59:22;;;;;;;11.80;2.75;;;;;;;10.69;100.00;100356.19;5050756;28;20044;-66
2023/10/22 08:01:47;;;;;;;13.90;2.72;;;;;;;10.88;100.00;100369.78;5050914;28;20029;-66
2023/10/22 08:04:13;;;;;;;11.05;2.78;;;;;;;11.01;100.00;100369.97;5050554;28;20029;-66
2023/10/22 08:06:38;;;;;;;12.27;2.95;;;;;;;11.12;100.00;100371.31;5050597;28;20040;-65
2023/10/22 08:09:03;;;;;;;11.30;3.15;;;;;;;11.23;100.00;100380.97;5050449;28;20047;-67
2023/10/22 08:11:29;;;;;;;11.02;2.78;;;;;;;11.33;100.00;100381.81;5050547;28;20087;-64
2023/10/22 08:13:54;;;;;;;10.00;2.97;;;;;;;11.33;100.00;100385.41;5050492;28;20017;-67
2023/10/22 08:16:20;;;;;;;8.15;2.75;;;;;;;11.44;100.00;100390.59;5050501;28;20021;-65
2023/10/22 08:18:45;;;;;;;13.27;2.88;;;;;;;11.47;100.00;100389.97;5050309;28;20061;-66
2023/10/22 08:21:10;;;;;;;14.80;3.55;;;;;;;11.50;100.00;100395.69;5050624;28;20131;-67
2023/10/22 08:23:38;;;;;;;10.90;3.15;;;;;;;11.52;100.00;100398.94;5050569;28;20391;-66
2023/10/22 08:26:04;;;;;;;9.90;2.70;;;;;;;11.53;100.00;100403.34;5050738;28;20033;-66
2023/10/22 08:28:29;;;;;;;12.15;2.97;;;;;;;11.54;100.00;100404.97;5050731;28;20781;-66
2023/10/22 08:30:54;;;;;;;13.80;3.10;;;;;;;11.57;100.00;100397.97;5050327;28;20033;-66
2023/10/22 08:33:20;;;;;;;11.40;3.10;;;;;;;11.59;100.00;100408.72;5050080;28;20471;-66
2023/10/22 08:35:45;;;;;;;11.00;2.92;;;;;;;11.60;100.00;100396.50;5050257;28;20043;-66
2023/10/22 08:38:10;;;;;;;10.52;3.00;;;;;;;11.67;100.00;100407.91;5050151;28;20060;-66
2023/10/22 08:40:38;;;;;;;11.13;2.97;;;;;;;11.73;100.00;100412.19;5050648;28;20032;-66
2023/10/22 08:43:16;;;;;;;11.95;2.92;;;;;;;11.76;100.00;100421.78;5049947;28;20064;-64
2023/10/22 08:45:45;;;;;;;9.20;2.90;;;;;;;11.79;100.00;100423.91;5049887;28;20159;-65
2023/10/22 08:48:12;;;;;;;12.57;3.30;;;;;;;11.83;100.00;100427.66;5050155;28;20114;-66
2023/10/22 08:50:38;;;;;;;10.40;3.08;;;;;;;11.88;100.00;100424.75;5050105;28;20028;-66
2023/10/22 08:53:03;;;;;;;16.95;3.45;;;;;;;11.93;100.00;100427.34;5049772;28;20041;-66
2023/10/22 08:55:29;;;;;;;12.77;3.50;;;;;;;12.02;100.00;100441.25;5048241;28;20029;-66
2023/10/22 08:57:55;;;;;;;11.30;2.90;;;;;;;12.10;100.00;100439.59;5049536;28;20045;-66
2023/10/22 09:00:24;;;;;;;11.73;3.00;;;;;;;12.15;100.00;100440.25;5049755;28;20029;-66
2023/10/22 09:02:49;;;;;;;12.38;3.00;;;;;;;12.20;100.00;100442.03;5049946;28;20074;-66
2023/10/22 09:05:14;;;;;;;9.75;3.42;;;;;;;12.21;100.00;100442.88;5049741;28;20021;-66
2023/10/22 09:07:52;;;;;;;9.60;2.92;;;;;;;12.32;100.00;100444.97;5049533;28;20027;-66
2023/10/22 09:10:30;;;;;;;12.43;2.97;;;;;;;12.37;100.00;100454.28;5049618;28;20029;-67
2023/10/22 09:13:15;;;;;;;10.90;3.15;;;;;;;12.47;100.00;100459.47;5049676;28;20056;-66
2023/10/22 09:15:49;;;;;;;10.77;3.15;;;;;;;12.50;100.00;100458.03;5050237;28;20506;-66
2023/10/22 09:18:16;;;;;;;13.15;3.30;;;;;;;12.56;100.00;100456.69;5049835;28;20029;-67
2023/10/22 09:20:42;;;;;;;14.73;3.40;;;;;;;12.63;100.00;100457.00;5049872;28;20025;-64
2023/10/22 09:23:23;;;;;;;14.93;3.70;;;;;;;12.71;100.00;100466.47;5049690;28;20017;-66
2023/10/22 09:25:50;;;;;;;11.40;3.08;;;;;;;12.70;100.00;100470.38;5049743;28;20060;-65
2023/10/22 09:28:27;;;;;;;12.77;3.20;;;;;;;12.74;100.00;100480.50;5049709;28;20031;-66
2023/10/22 09:31:04;;;;;;;12.10;3.08;;;;;;;12.82;100.00;100478.00;5050271;28;20032;-66
2023/10/22 09:33:34;;;;;;;12.98;3.17;;;;;;;12.86;100.00;100482.56;5050068;28;20087;-66
2023/10/22 09:36:08;;;;;;;13.35;3.08;;;;;;;12.93;100.00;100482.06;5049739;28;20029;-66
2023/10/22 09:38:49;;;;;;;;;;;;;;;13.07;100.00;100488.25;5049958;28;20484;-65
2023/10/22 09:41:25;;;;;;;11.15;3.10;;;;;;;13.07;100.00;100490.19;5049592;28;19998;-65
2023/10/22 09:43:51;;;;;;;8.95;2.85;;;;;;;13.09;100.00;100487.91;5051716;28;20025;-65
2023/10/22 09:46:18;;;;;;;13.50;3.60;;;;;;;13.01;100.00;100495.13;5053039;28;20045;-66
2023/10/22 09:48:46;;;;;;;12.63;3.10;;;;;;;13.04;100.00;100504.72;5053304;28;20487;-66
2023/10/22 09:51:13;;;;;;;13.23;3.60;;;;;;;13.06;100.00;100516.34;5053216;28;20025;-66
2023/10/22 09:53:44;;;;;;;14.57;3.80;;;;;;;13.06;100.00;100516.34;5052995;28;20310;-66
2023/10/22 09:56:11;;;;;;;11.18;3.65;;;;;;;13.02;100.00;100518.97;5051801;28;20535;-66
2023/10/22 09:58:42;;;;;;;14.88;3.80;;;;;;;12.99;100.00;100513.25;5052690;28;20058;-65
2023/10/22 10:01:10;;;;;;;14.10;4.00;;;;;;;12.97;100.00;100518.31;5052787;28;20025;-65
2023/10/22 10:03:36;;;;;;;12.85;3.92;;;;;;;12.92;100.00;100520.13;5052932;28;20043;-65
2023/10/22 10:06:07;;;;;;;15.93;4.07;;;;;;;12.87;100.00;100522.28;5053035;28;20032;-65
2023/10/22 10:08:39;;;;;;;13.65;3.70;;;;;;;12.86;100.00;100528.97;5053305;28;20032;-65
2023/10/22 10:11:08;;;;;;;15.50;4.20;;;;;;;12.84;100.00;100532.09;5053180;28;20096;-66
2023/10/22 10:13:35;;;;;;;12.75;3.80;;;;;;;12.83;100.00;100532.41;5052953;28;20222;-65
2023/10/22 10:16:03;;;;;;;14.70;3.92;;;;;;;12.85;100.00;100528.13;5053367;28;20437;-65
2023/10/22 10:19:00;;;;;;;14.68;4.10;;;;;;;13.04;100.00;100530.56;5052805;28;20110;-66
2023/10/22 10:21:34;;;;;;;13.98;4.30;;;;;;;13.16;100.00;100529.88;5052412;28;20473;-65
2023/10/22 10:24:26;;;;;;;13.70;4.10;;;;;;;13.31;100.00;100536.03;5052161;28;20020;-66
2023/10/22 10:26:55;;;;;;;15.75;4.30;;;;;;;13.36;100.00;100536.69;5050887;28;20052;-65
2023/10/22 10:29:23;;;;;;;15.60;4.80;;;;;;;13.35;100.00;100532.28;5051830;28;20373;-65
2023/10/22 10:31:51;;;;;;;16.10;4.30;;;;;;;13.35;100.00;100542.53;5051915;28;20061;-65
2023/10/22 10:34:21;;;;;;;24.88;10.82;;;;;;;13.38;100.00;100544.66;5052368;28;20032;-65
2023/10/22 10:36:49;;;;;;;17.17;5.40;;;;;;;13.36;100.00;100545.00;5051929;28;20429;-65
2023/10/22 10:39:42;;;;;;;13.90;4.13;;;;;;;13.47;100.00;100555.75;5051694;28;20029;-66
2023/10/22 10:42:09;;;;;;;15.63;4.63;;;;;;;13.44;100.00;100551.69;5051762;28;20029;-66
2023/10/22 10:45:02;;;;;;;16.05;4.68;;;;;;;13.52;100.00;100556.41;5051660;28;20112;-66
2023/10/22 10:47:31;;;;;;;13.73;4.47;;;;;;;13.50;100.00;100549.56;5051670;28;20032;-66
2023/10/22 10:50:04;;;;;;;11.65;3.90;;;;;;;13.45;100.00;100558.09;5050109;28;20044;-66
2023/10/22 10:53:02;;;;;;;16.83;4.60;;;;;;;13.43;100.00;100552.84;5051568;28;20177;-66
2023/10/22 10:55:32;;;;;;;18.17;4.68;;;;;;;13.39;100.00;100555.47;5048742;28;20045;-66
2023/10/22 10:57:57;;;;;;;14.88;3.75;;;;;;;13.37;100.00;100559.72;5051464;28;20128;-66
2023/10/22 11:00:31;;;;;;;12.77;4.10;;;;;;;13.31;100.00;100547.94;5051406;28;20500;-67
2023/10/22 11:02:58;;;;;;;14.60;4.32;;;;;;;13.33;100.00;100556.78;5049962;28;20021;-66
2023/10/22 11:05:39;;;;;;;16.23;4.60;;;;;;;13.40;100.00;100562.66;5051671;28;20029;-66
2023/10/22 11:08:18;;;;;;;14.57;4.20;;;;;;;13.46;100.00;100563.31;5051965;28;20040;-65
2023/10/22 11:10:45;;;;;;;12.30;4.10;;;;;;;13.41;100.00;100561.53;5051730;28;20063;-66
2023/10/22 11:13:10;;;;;;;18.70;5.00;;;;;;;13.43;100.00;100558.41;5051654;28;20488;-66
2023/10/22 11:15:37;;;;;;;16.00;4.50;;;;;;;13.45;100.00;100563.63;5051297;28;20048;-65
2023/10/22 11:18:04;;;;;;;13.75;4.13;;;;;;;13.50;100.00;100569.00;5051364;28;20106;-66